sensor_id;sensor_type;location;lat;lon;timestamp;P1;durP1;ratioP1;P2;durP2;ratioP2
43552;SDS011;29153;42.696;23.218;2023-05-10T00:01:19;7.95;;;4.75;;
43552;SDS011;29153;42.696;23.218;2023-05-10T00:03:47;7.45;;;4.53;;
43552;SDS011;29153;42.696;23.218;2023-05-10T00:06:14;8.95;;;5.12;;
43552;SDS011;29153;42.696;23.218;2023-05-10T00:08:42;9.23;;;5.10;;
43552;SDS011;29153;42.696;23.218;2023-05-10T00:11:10;9.15;;;5.30;;
43552;SDS011;29153;42.696;23.218;2023-05-10T00:13:37;12.23;;;6.20;;
43552;SDS011;29153;42.696;23.218;2023-05-10T00:16:05;10.58;;;5.60;;
43552;SDS011;29153;42.696;23.218;2023-05-10T00:18:32;9.48;;;5.65;;
43552;SDS011;29153;42.696;23.218;2023-05-10T00:21:00;10.30;;;5.58;;
43552;SDS011;29153;42.696;23.218;2023-05-10T00:23:28;10.72;;;6.20;;
43552;SDS011;29153;42.696;23.218;2023-05-10T00:25:55;9.88;;;5.50;;
43552;SDS011;29153;42.696;23.218;2023-05-10T00:28:23;9.60;;;6.15;;
43552;SDS011;29153;42.696;23.218;2023-05-10T00:30:50;13.18;;;6.10;;
43552;SDS011;29153;42.696;23.218;2023-05-10T00:33:18;9.73;;;5.35;;
43552;SDS011;29153;42.696;23.218;2023-05-10T00:35:46;9.75;;;5.75;;
43552;SDS011;29153;42.696;23.218;2023-05-10T00:38:13;10.50;;;5.78;;
43552;SDS011;29153;42.696;23.218;2023-05-10T00:40:41;8.65;;;5.50;;
43552;SDS011;29153;42.696;23.218;2023-05-10T00:45:36;8.28;;;5.05;;
43552;SDS011;29153;42.696;23.218;2023-05-10T00:48:06;12.55;;;6.65;;
43552;SDS011;29153;42.696;23.218;2023-05-10T00:50:34;11.00;;;6.85;;
43552;SDS011;29153;42.696;23.218;2023-05-10T00:53:02;9.50;;;6.17;;
43552;SDS011;29153;42.696;23.218;2023-05-10T00:55:30;10.50;;;6.50;;
43552;SDS011;29153;42.696;23.218;2023-05-10T00:57:57;9.45;;;6.12;;
43552;SDS011;29153;42.696;23.218;2023-05-10T01:00:25;12.98;;;6.42;;
43552;SDS011;29153;42.696;23.218;2023-05-10T01:02:53;10.60;;;6.65;;
43552;SDS011;29153;42.696;23.218;2023-05-10T01:05:41;10.68;;;6.37;;
43552;SDS011;29153;42.696;23.218;2023-05-10T01:08:08;10.98;;;6.65;;
43552;SDS011;29153;42.696;23.218;2023-05-10T01:10:36;11.00;;;6.58;;
43552;SDS011;29153;42.696;23.218;2023-05-10T01:13:03;10.85;;;7.40;;
43552;SDS011;29153;42.696;23.218;2023-05-10T01:15:31;11.43;;;6.75;;
43552;SDS011;29153;42.696;23.218;2023-05-10T01:17:59;10.68;;;6.03;;
43552;SDS011;29153;42.696;23.218;2023-05-10T01:20:30;10.50;;;6.50;;
43552;SDS011;29153;42.696;23.218;2023-05-10T01:23:10;10.82;;;6.55;;
43552;SDS011;29153;42.696;23.218;2023-05-10T01:28:56;13.35;;;7.95;;
43552;SDS011;29153;42.696;23.218;2023-05-10T01:34:13;9.95;;;6.75;;
43552;SDS011;29153;42.696;23.218;2023-05-10T01:36:45;12.10;;;6.70;;
43552;SDS011;29153;42.696;23.218;2023-05-10T01:39:15;12.15;;;7.08;;
43552;SDS011;29153;42.696;23.218;2023-05-10T01:42:15;9.78;;;6.20;;
43552;SDS011;29153;42.696;23.218;2023-05-10T01:45:41;11.40;;;6.58;;
43552;SDS011;29153;42.696;23.218;2023-05-10T01:47:33;13.10;;;6.80;;
43552;SDS011;29153;42.696;23.218;2023-05-10T01:50:15;10.05;;;6.25;;
43552;SDS011;29153;42.696;23.218;2023-05-10T01:53:00;9.73;;;6.70;;
43552;SDS011;29153;42.696;23.218;2023-05-10T01:55:29;9.28;;;6.17;;
43552;SDS011;29153;42.696;23.218;2023-05-10T01:58:01;13.50;;;6.00;;
43552;SDS011;29153;42.696;23.218;2023-05-10T02:00:29;9.58;;;5.20;;
43552;SDS011;29153;42.696;23.218;2023-05-10T02:02:57;8.08;;;5.30;;
43552;SDS011;29153;42.696;23.218;2023-05-10T02:05:27;9.18;;;5.58;;
43552;SDS011;29153;42.696;23.218;2023-05-10T02:07:58;7.95;;;4.78;;
43552;SDS011;29153;42.696;23.218;2023-05-10T02:10:28;8.58;;;5.00;;
43552;SDS011;29153;42.696;23.218;2023-05-10T02:12:58;8.63;;;4.90;;
43552;SDS011;29153;42.696;23.218;2023-05-10T02:15:27;8.43;;;5.85;;
43552;SDS011;29153;42.696;23.218;2023-05-10T02:17:55;8.80;;;5.67;;
43552;SDS011;29153;42.696;23.218;2023-05-10T02:20:25;8.03;;;4.60;;
43552;SDS011;29153;42.696;23.218;2023-05-10T02:25:21;9.43;;;4.58;;
43552;SDS011;29153;42.696;23.218;2023-05-10T02:27:50;7.42;;;4.33;;
43552;SDS011;29153;42.696;23.218;2023-05-10T02:30:20;8.83;;;5.17;;
43552;SDS011;29153;42.696;23.218;2023-05-10T02:32:50;8.13;;;5.35;;
43552;SDS011;29153;42.696;23.218;2023-05-10T02:35:18;7.58;;;4.92;;
43552;SDS011;29153;42.696;23.218;2023-05-10T02:37:48;6.45;;;4.30;;
43552;SDS011;29153;42.696;23.218;2023-05-10T02:40:16;6.95;;;4.35;;
43552;SDS011;29153;42.696;23.218;2023-05-10T02:42:46;6.75;;;4.22;;
43552;SDS011;29153;42.696;23.218;2023-05-10T02:45:18;6.55;;;4.67;;
43552;SDS011;29153;42.696;23.218;2023-05-10T02:47:47;9.13;;;5.58;;
43552;SDS011;29153;42.696;23.218;2023-05-10T02:50:15;7.25;;;5.28;;
43552;SDS011;29153;42.696;23.218;2023-05-10T02:52:44;8.70;;;4.65;;
43552;SDS011;29153;42.696;23.218;2023-05-10T02:55:18;7.37;;;4.87;;
43552;SDS011;29153;42.696;23.218;2023-05-10T02:57:48;7.37;;;4.05;;
43552;SDS011;29153;42.696;23.218;2023-05-10T03:00:19;7.95;;;4.80;;
43552;SDS011;29153;42.696;23.218;2023-05-10T03:02:46;9.55;;;4.78;;
43552;SDS011;29153;42.696;23.218;2023-05-10T03:05:14;8.65;;;4.72;;
43552;SDS011;29153;42.696;23.218;2023-05-10T03:07:41;7.10;;;4.10;;
43552;SDS011;29153;42.696;23.218;2023-05-10T03:10:09;6.58;;;4.42;;
43552;SDS011;29153;42.696;23.218;2023-05-10T03:12:52;8.35;;;4.62;;
43552;SDS011;29153;42.696;23.218;2023-05-10T03:15:22;7.60;;;4.60;;
43552;SDS011;29153;42.696;23.218;2023-05-10T03:18:16;6.17;;;4.30;;
43552;SDS011;29153;42.696;23.218;2023-05-10T03:20:54;8.88;;;4.75;;
43552;SDS011;29153;42.696;23.218;2023-05-10T03:23:35;7.97;;;4.60;;
43552;SDS011;29153;42.696;23.218;2023-05-10T03:26:07;10.25;;;5.25;;
43552;SDS011;29153;42.696;23.218;2023-05-10T03:28:35;7.70;;;4.87;;
43552;SDS011;29153;42.696;23.218;2023-05-10T03:31:04;9.85;;;5.40;;
43552;SDS011;29153;42.696;23.218;2023-05-10T03:35:59;9.38;;;5.00;;
43552;SDS011;29153;42.696;23.218;2023-05-10T03:38:27;8.05;;;4.97;;
43552;SDS011;29153;42.696;23.218;2023-05-10T03:40:54;6.97;;;4.17;;
43552;SDS011;29153;42.696;23.218;2023-05-10T03:43:22;8.15;;;4.80;;
43552;SDS011;29153;42.696;23.218;2023-05-10T03:45:49;7.40;;;4.25;;
43552;SDS011;29153;42.696;23.218;2023-05-10T03:48:17;9.05;;;5.05;;
43552;SDS011;29153;42.696;23.218;2023-05-10T03:50:44;7.80;;;4.92;;
43552;SDS011;29153;42.696;23.218;2023-05-10T03:53:12;7.75;;;4.45;;
43552;SDS011;29153;42.696;23.218;2023-05-10T03:55:40;8.35;;;5.10;;
43552;SDS011;29153;42.696;23.218;2023-05-10T03:58:10;7.50;;;4.75;;
43552;SDS011;29153;42.696;23.218;2023-05-10T04:00:38;8.30;;;4.90;;
43552;SDS011;29153;42.696;23.218;2023-05-10T04:03:11;9.45;;;4.97;;
43552;SDS011;29153;42.696;23.218;2023-05-10T04:05:38;8.05;;;5.37;;
43552;SDS011;29153;42.696;23.218;2023-05-10T04:08:06;9.88;;;4.62;;
43552;SDS011;29153;42.696;23.218;2023-05-10T04:10:34;8.95;;;4.70;;
43552;SDS011;29153;42.696;23.218;2023-05-10T04:13:02;10.10;;;5.15;;
43552;SDS011;29153;42.696;23.218;2023-05-10T04:15:29;11.05;;;5.75;;
43552;SDS011;29153;42.696;23.218;2023-05-10T04:17:57;10.43;;;5.37;;
43552;SDS011;29153;42.696;23.218;2023-05-10T04:20:24;10.13;;;5.22;;
43552;SDS011;29153;42.696;23.218;2023-05-10T04:22:52;9.33;;;4.78;;
43552;SDS011;29153;42.696;23.218;2023-05-10T04:25:19;9.80;;;5.37;;
43552;SDS011;29153;42.696;23.218;2023-05-10T04:27:47;8.48;;;4.78;;
43552;SDS011;29153;42.696;23.218;2023-05-10T04:30:14;10.98;;;5.22;;
43552;SDS011;29153;42.696;23.218;2023-05-10T04:32:42;10.98;;;5.45;;
43552;SDS011;29153;42.696;23.218;2023-05-10T04:35:09;9.68;;;5.42;;
43552;SDS011;29153;42.696;23.218;2023-05-10T04:37:37;9.80;;;5.10;;
43552;SDS011;29153;42.696;23.218;2023-05-10T04:40:05;8.13;;;5.40;;
43552;SDS011;29153;42.696;23.218;2023-05-10T04:42:33;9.23;;;5.25;;
43552;SDS011;29153;42.696;23.218;2023-05-10T04:45:00;7.40;;;5.05;;
43552;SDS011;29153;42.696;23.218;2023-05-10T04:47:28;8.23;;;5.28;;
43552;SDS011;29153;42.696;23.218;2023-05-10T04:49:55;10.38;;;6.15;;
43552;SDS011;29153;42.696;23.218;2023-05-10T04:52:23;9.35;;;5.50;;
43552;SDS011;29153;42.696;23.218;2023-05-10T04:54:51;11.18;;;6.33;;
43552;SDS011;29153;42.696;23.218;2023-05-10T04:57:19;12.30;;;5.55;;
43552;SDS011;29153;42.696;23.218;2023-05-10T04:59:46;8.58;;;5.05;;
43552;SDS011;29153;42.696;23.218;2023-05-10T05:02:14;8.38;;;5.47;;
43552;SDS011;29153;42.696;23.218;2023-05-10T05:04:41;8.98;;;5.37;;
43552;SDS011;29153;42.696;23.218;2023-05-10T05:07:09;8.73;;;5.58;;
43552;SDS011;29153;42.696;23.218;2023-05-10T05:09:36;9.05;;;5.95;;
43552;SDS011;29153;42.696;23.218;2023-05-10T05:12:04;10.32;;;6.05;;
43552;SDS011;29153;42.696;23.218;2023-05-10T05:14:31;8.30;;;5.47;;
43552;SDS011;29153;42.696;23.218;2023-05-10T05:16:59;10.38;;;6.10;;
43552;SDS011;29153;42.696;23.218;2023-05-10T05:19:26;11.50;;;5.42;;
43552;SDS011;29153;42.696;23.218;2023-05-10T05:21:54;10.95;;;6.75;;
43552;SDS011;29153;42.696;23.218;2023-05-10T05:24:21;10.28;;;6.47;;
43552;SDS011;29153;42.696;23.218;2023-05-10T05:26:49;9.60;;;5.75;;
43552;SDS011;29153;42.696;23.218;2023-05-10T05:29:16;11.33;;;6.65;;
43552;SDS011;29153;42.696;23.218;2023-05-10T05:31:44;11.08;;;6.58;;
43552;SDS011;29153;42.696;23.218;2023-05-10T05:34:11;10.78;;;6.45;;
43552;SDS011;29153;42.696;23.218;2023-05-10T05:36:39;8.95;;;5.78;;
43552;SDS011;29153;42.696;23.218;2023-05-10T05:39:06;10.03;;;5.75;;
43552;SDS011;29153;42.696;23.218;2023-05-10T05:41:34;11.33;;;6.28;;
43552;SDS011;29153;42.696;23.218;2023-05-10T05:44:02;12.50;;;6.97;;
43552;SDS011;29153;42.696;23.218;2023-05-10T05:46:29;10.80;;;5.95;;
43552;SDS011;29153;42.696;23.218;2023-05-10T05:48:57;10.38;;;6.65;;
43552;SDS011;29153;42.696;23.218;2023-05-10T05:51:24;11.43;;;6.70;;
43552;SDS011;29153;42.696;23.218;2023-05-10T05:53:52;11.78;;;6.25;;
43552;SDS011;29153;42.696;23.218;2023-05-10T05:56:19;10.98;;;7.30;;
43552;SDS011;29153;42.696;23.218;2023-05-10T05:58:49;12.20;;;6.83;;
43552;SDS011;29153;42.696;23.218;2023-05-10T06:01:16;10.18;;;5.92;;
43552;SDS011;29153;42.696;23.218;2023-05-10T06:03:44;11.30;;;6.67;;
43552;SDS011;29153;42.696;23.218;2023-05-10T06:06:12;10.90;;;6.50;;
43552;SDS011;29153;42.696;23.218;2023-05-10T06:08:39;13.03;;;7.87;;
43552;SDS011;29153;42.696;23.218;2023-05-10T06:11:07;11.20;;;6.80;;
43552;SDS011;29153;42.696;23.218;2023-05-10T06:13:34;15.23;;;7.15;;
43552;SDS011;29153;42.696;23.218;2023-05-10T06:16:02;11.97;;;7.08;;
43552;SDS011;29153;42.696;23.218;2023-05-10T06:18:30;16.48;;;9.78;;
43552;SDS011;29153;42.696;23.218;2023-05-10T06:20:57;15.43;;;9.10;;
43552;SDS011;29153;42.696;23.218;2023-05-10T06:23:25;18.98;;;9.68;;
43552;SDS011;29153;42.696;23.218;2023-05-10T06:25:52;13.85;;;8.93;;
43552;SDS011;29153;42.696;23.218;2023-05-10T06:28:20;15.23;;;9.20;;
43552;SDS011;29153;42.696;23.218;2023-05-10T06:30:47;18.98;;;11.40;;
43552;SDS011;29153;42.696;23.218;2023-05-10T06:33:15;31.02;;;17.37;;
43552;SDS011;29153;42.696;23.218;2023-05-10T06:35:42;21.75;;;13.32;;
43552;SDS011;29153;42.696;23.218;2023-05-10T06:38:10;19.85;;;9.98;;
43552;SDS011;29153;42.696;23.218;2023-05-10T06:40:40;12.63;;;7.78;;
43552;SDS011;29153;42.696;23.218;2023-05-10T06:43:09;14.45;;;8.35;;
43552;SDS011;29153;42.696;23.218;2023-05-10T06:45:37;11.22;;;7.42;;
43552;SDS011;29153;42.696;23.218;2023-05-10T06:48:05;14.85;;;7.65;;
43552;SDS011;29153;42.696;23.218;2023-05-10T06:50:32;13.13;;;7.70;;
43552;SDS011;29153;42.696;23.218;2023-05-10T06:53:00;11.75;;;6.85;;
43552;SDS011;29153;42.696;23.218;2023-05-10T06:55:28;11.68;;;6.83;;
43552;SDS011;29153;42.696;23.218;2023-05-10T06:57:55;12.23;;;7.83;;
43552;SDS011;29153;42.696;23.218;2023-05-10T07:00:23;12.95;;;7.42;;
43552;SDS011;29153;42.696;23.218;2023-05-10T07:02:50;11.45;;;7.22;;
43552;SDS011;29153;42.696;23.218;2023-05-10T07:05:18;14.47;;;6.72;;
43552;SDS011;29153;42.696;23.218;2023-05-10T07:07:45;12.35;;;6.67;;
43552;SDS011;29153;42.696;23.218;2023-05-10T07:10:13;12.65;;;7.50;;
43552;SDS011;29153;42.696;23.218;2023-05-10T07:12:40;12.95;;;8.03;;
43552;SDS011;29153;42.696;23.218;2023-05-10T07:15:08;15.58;;;8.25;;
43552;SDS011;29153;42.696;23.218;2023-05-10T07:17:36;13.95;;;8.73;;
43552;SDS011;29153;42.696;23.218;2023-05-10T07:20:03;13.58;;;8.03;;
43552;SDS011;29153;42.696;23.218;2023-05-10T07:22:31;18.65;;;9.63;;
43552;SDS011;29153;42.696;23.218;2023-05-10T07:24:59;15.05;;;9.40;;
43552;SDS011;29153;42.696;23.218;2023-05-10T07:27:27;13.70;;;8.65;;
43552;SDS011;29153;42.696;23.218;2023-05-10T07:29:55;13.30;;;8.35;;
43552;SDS011;29153;42.696;23.218;2023-05-10T07:32:22;13.58;;;7.45;;
43552;SDS011;29153;42.696;23.218;2023-05-10T07:34:50;11.70;;;7.03;;
43552;SDS011;29153;42.696;23.218;2023-05-10T07:37:17;13.83;;;8.13;;
43552;SDS011;29153;42.696;23.218;2023-05-10T07:39:45;11.90;;;7.65;;
43552;SDS011;29153;42.696;23.218;2023-05-10T07:42:16;12.90;;;7.50;;
43552;SDS011;29153;42.696;23.218;2023-05-10T07:44:44;10.10;;;6.53;;
43552;SDS011;29153;42.696;23.218;2023-05-10T07:47:11;12.15;;;8.43;;
43552;SDS011;29153;42.696;23.218;2023-05-10T07:49:39;18.73;;;12.03;;
43552;SDS011;29153;42.696;23.218;2023-05-10T07:52:06;13.70;;;8.70;;
43552;SDS011;29153;42.696;23.218;2023-05-10T07:54:34;15.00;;;7.65;;
43552;SDS011;29153;42.696;23.218;2023-05-10T07:57:01;16.17;;;9.05;;
43552;SDS011;29153;42.696;23.218;2023-05-10T07:59:29;22.40;;;13.43;;
43552;SDS011;29153;42.696;23.218;2023-05-10T08:01:56;15.38;;;7.35;;
43552;SDS011;29153;42.696;23.218;2023-05-10T08:04:24;18.10;;;8.53;;
43552;SDS011;29153;42.696;23.218;2023-05-10T08:06:51;13.30;;;8.30;;
43552;SDS011;29153;42.696;23.218;2023-05-10T08:09:19;13.78;;;8.13;;
43552;SDS011;29153;42.696;23.218;2023-05-10T08:11:48;12.78;;;6.90;;
43552;SDS011;29153;42.696;23.218;2023-05-10T08:14:16;14.25;;;7.35;;
43552;SDS011;29153;42.696;23.218;2023-05-10T08:16:44;16.30;;;8.10;;
43552;SDS011;29153;42.696;23.218;2023-05-10T08:19:12;12.80;;;8.30;;
43552;SDS011;29153;42.696;23.218;2023-05-10T08:21:39;13.05;;;7.95;;
43552;SDS011;29153;42.696;23.218;2023-05-10T08:24:08;11.57;;;7.15;;
43552;SDS011;29153;42.696;23.218;2023-05-10T08:26:35;18.65;;;8.88;;
43552;SDS011;29153;42.696;23.218;2023-05-10T08:29:03;13.32;;;8.28;;
43552;SDS011;29153;42.696;23.218;2023-05-10T08:31:30;9.68;;;6.47;;
43552;SDS011;29153;42.696;23.218;2023-05-10T08:33:58;11.68;;;7.47;;
43552;SDS011;29153;42.696;23.218;2023-05-10T08:36:25;10.63;;;7.00;;
43552;SDS011;29153;42.696;23.218;2023-05-10T08:38:53;11.00;;;5.67;;
43552;SDS011;29153;42.696;23.218;2023-05-10T08:41:21;12.73;;;6.95;;
43552;SDS011;29153;42.696;23.218;2023-05-10T08:43:51;12.47;;;7.95;;
43552;SDS011;29153;42.696;23.218;2023-05-10T08:46:21;11.85;;;7.25;;
43552;SDS011;29153;42.696;23.218;2023-05-10T08:48:50;12.50;;;7.58;;
43552;SDS011;29153;42.696;23.218;2023-05-10T08:51:18;11.60;;;7.83;;
43552;SDS011;29153;42.696;23.218;2023-05-10T08:53:48;11.95;;;7.87;;
43552;SDS011;29153;42.696;23.218;2023-05-10T08:56:16;12.98;;;7.30;;
43552;SDS011;29153;42.696;23.218;2023-05-10T08:58:45;11.53;;;7.70;;
43552;SDS011;29153;42.696;23.218;2023-05-10T09:01:15;9.90;;;6.42;;
43552;SDS011;29153;42.696;23.218;2023-05-10T09:03:45;11.50;;;7.35;;
43552;SDS011;29153;42.696;23.218;2023-05-10T09:06:14;10.72;;;7.33;;
43552;SDS011;29153;42.696;23.218;2023-05-10T09:08:42;11.08;;;7.22;;
43552;SDS011;29153;42.696;23.218;2023-05-10T09:11:09;9.23;;;5.90;;
43552;SDS011;29153;42.696;23.218;2023-05-10T09:13:38;11.60;;;7.90;;
43552;SDS011;29153;42.696;23.218;2023-05-10T09:16:06;12.18;;;7.08;;
43552;SDS011;29153;42.696;23.218;2023-05-10T09:18:34;11.57;;;8.23;;
43552;SDS011;29153;42.696;23.218;2023-05-10T09:21:01;12.60;;;7.50;;
43552;SDS011;29153;42.696;23.218;2023-05-10T09:23:29;13.13;;;6.92;;
43552;SDS011;29153;42.696;23.218;2023-05-10T09:26:04;9.65;;;6.33;;
43552;SDS011;29153;42.696;23.218;2023-05-10T09:28:32;13.50;;;8.00;;
43552;SDS011;29153;42.696;23.218;2023-05-10T09:31:02;11.38;;;7.60;;
43552;SDS011;29153;42.696;23.218;2023-05-10T09:33:29;14.18;;;7.80;;
43552;SDS011;29153;42.696;23.218;2023-05-10T09:36:06;10.08;;;6.80;;
43552;SDS011;29153;42.696;23.218;2023-05-10T09:41:18;10.68;;;6.62;;
43552;SDS011;29153;42.696;23.218;2023-05-10T09:43:48;14.65;;;8.23;;
43552;SDS011;29153;42.696;23.218;2023-05-10T09:46:17;11.30;;;6.47;;
43552;SDS011;29153;42.696;23.218;2023-05-10T09:48:45;12.68;;;7.33;;
43552;SDS011;29153;42.696;23.218;2023-05-10T09:51:20;11.35;;;6.83;;
43552;SDS011;29153;42.696;23.218;2023-05-10T09:53:48;12.10;;;7.28;;
43552;SDS011;29153;42.696;23.218;2023-05-10T09:56:33;10.38;;;7.45;;
43552;SDS011;29153;42.696;23.218;2023-05-10T09:59:03;12.73;;;7.47;;
43552;SDS011;29153;42.696;23.218;2023-05-10T10:01:31;12.30;;;7.65;;
43552;SDS011;29153;42.696;23.218;2023-05-10T10:04:01;11.35;;;6.95;;
43552;SDS011;29153;42.696;23.218;2023-05-10T10:06:31;9.75;;;6.10;;
43552;SDS011;29153;42.696;23.218;2023-05-10T10:09:03;11.70;;;7.70;;
43552;SDS011;29153;42.696;23.218;2023-05-10T10:11:31;15.20;;;8.20;;
43552;SDS011;29153;42.696;23.218;2023-05-10T10:14:00;14.07;;;7.22;;
43552;SDS011;29153;42.696;23.218;2023-05-10T10:16:33;11.78;;;7.75;;
43552;SDS011;29153;42.696;23.218;2023-05-10T10:18:57;9.53;;;6.70;;
43552;SDS011;29153;42.696;23.218;2023-05-10T10:21:25;10.08;;;7.55;;
43552;SDS011;29153;42.696;23.218;2023-05-10T10:23:53;10.03;;;5.72;;
43552;SDS011;29153;42.696;23.218;2023-05-10T10:26:21;10.63;;;6.45;;
43552;SDS011;29153;42.696;23.218;2023-05-10T10:29:00;11.90;;;7.62;;
43552;SDS011;29153;42.696;23.218;2023-05-10T10:34:43;12.70;;;7.20;;
43552;SDS011;29153;42.696;23.218;2023-05-10T10:39:38;11.95;;;7.75;;
43552;SDS011;29153;42.696;23.218;2023-05-10T10:42:06;9.45;;;5.80;;
43552;SDS011;29153;42.696;23.218;2023-05-10T10:44:34;9.35;;;6.17;;
43552;SDS011;29153;42.696;23.218;2023-05-10T10:47:07;11.30;;;7.10;;
43552;SDS011;29153;42.696;23.218;2023-05-10T10:52:25;12.33;;;7.20;;
43552;SDS011;29153;42.696;23.218;2023-05-10T10:57:49;11.03;;;7.10;;
43552;SDS011;29153;42.696;23.218;2023-05-10T11:03:08;11.83;;;6.97;;
43552;SDS011;29153;42.696;23.218;2023-05-10T11:05:41;14.07;;;7.80;;
43552;SDS011;29153;42.696;23.218;2023-05-10T11:08:11;14.00;;;7.05;;
43552;SDS011;29153;42.696;23.218;2023-05-10T11:10:40;9.18;;;6.30;;
43552;SDS011;29153;42.696;23.218;2023-05-10T11:16:11;11.75;;;7.30;;
43552;SDS011;29153;42.696;23.218;2023-05-10T11:18:53;9.88;;;6.80;;
43552;SDS011;29153;42.696;23.218;2023-05-10T11:21:27;9.58;;;6.00;;
43552;SDS011;29153;42.696;23.218;2023-05-10T11:23:56;10.18;;;7.20;;
43552;SDS011;29153;42.696;23.218;2023-05-10T11:26:25;9.68;;;6.83;;
43552;SDS011;29153;42.696;23.218;2023-05-10T11:28:54;8.45;;;6.70;;
43552;SDS011;29153;42.696;23.218;2023-05-10T11:31:24;12.47;;;7.25;;
43552;SDS011;29153;42.696;23.218;2023-05-10T11:33:55;9.78;;;7.17;;
43552;SDS011;29153;42.696;23.218;2023-05-10T11:36:25;12.00;;;6.80;;
43552;SDS011;29153;42.696;23.218;2023-05-10T11:38:56;10.53;;;6.62;;
43552;SDS011;29153;42.696;23.218;2023-05-10T11:41:23;12.15;;;6.87;;
43552;SDS011;29153;42.696;23.218;2023-05-10T11:43:53;10.80;;;7.33;;
43552;SDS011;29153;42.696;23.218;2023-05-10T11:46:22;11.88;;;6.85;;
43552;SDS011;29153;42.696;23.218;2023-05-10T11:48:55;10.90;;;6.75;;
43552;SDS011;29153;42.696;23.218;2023-05-10T11:51:27;8.65;;;6.47;;
43552;SDS011;29153;42.696;23.218;2023-05-10T11:53:55;11.43;;;7.50;;
43552;SDS011;29153;42.696;23.218;2023-05-10T11:56:23;11.90;;;6.97;;
43552;SDS011;29153;42.696;23.218;2023-05-10T12:39:04;13.08;;;7.87;;
43552;SDS011;29153;42.696;23.218;2023-05-10T12:41:32;13.32;;;8.20;;
43552;SDS011;29153;42.696;23.218;2023-05-10T12:43:59;10.90;;;7.22;;
43552;SDS011;29153;42.696;23.218;2023-05-10T12:46:27;12.43;;;8.38;;
43552;SDS011;29153;42.696;23.218;2023-05-10T12:48:54;13.72;;;8.93;;
43552;SDS011;29153;42.696;23.218;2023-05-10T12:51:22;13.48;;;8.48;;
43552;SDS011;29153;42.696;23.218;2023-05-10T12:53:49;16.87;;;10.10;;
43552;SDS011;29153;42.696;23.218;2023-05-10T12:56:17;12.35;;;7.30;;
43552;SDS011;29153;42.696;23.218;2023-05-10T12:58:45;15.08;;;8.33;;
43552;SDS011;29153;42.696;23.218;2023-05-10T13:01:14;11.15;;;7.08;;
43552;SDS011;29153;42.696;23.218;2023-05-10T13:03:41;12.13;;;7.62;;
43552;SDS011;29153;42.696;23.218;2023-05-10T13:06:09;15.75;;;8.73;;
43552;SDS011;29153;42.696;23.218;2023-05-10T13:08:38;14.00;;;7.95;;
43552;SDS011;29153;42.696;23.218;2023-05-10T13:11:06;14.35;;;8.33;;
43552;SDS011;29153;42.696;23.218;2023-05-10T13:13:33;14.80;;;10.53;;
43552;SDS011;29153;42.696;23.218;2023-05-10T13:16:01;12.68;;;7.80;;
43552;SDS011;29153;42.696;23.218;2023-05-10T13:18:28;12.73;;;7.90;;
43552;SDS011;29153;42.696;23.218;2023-05-10T13:20:56;12.58;;;6.67;;
43552;SDS011;29153;42.696;23.218;2023-05-10T13:23:24;11.15;;;6.97;;
43552;SDS011;29153;42.696;23.218;2023-05-10T13:25:51;17.75;;;8.00;;
43552;SDS011;29153;42.696;23.218;2023-05-10T13:28:19;10.53;;;6.75;;
43552;SDS011;29153;42.696;23.218;2023-05-10T13:30:46;13.30;;;7.25;;
43552;SDS011;29153;42.696;23.218;2023-05-10T13:33:14;10.72;;;7.10;;
43552;SDS011;29153;42.696;23.218;2023-05-10T13:35:41;12.68;;;7.30;;
43552;SDS011;29153;42.696;23.218;2023-05-10T13:38:10;15.20;;;8.68;;
43552;SDS011;29153;42.696;23.218;2023-05-10T13:40:39;11.03;;;6.92;;
43552;SDS011;29153;42.696;23.218;2023-05-10T13:43:06;12.90;;;7.58;;
43552;SDS011;29153;42.696;23.218;2023-05-10T13:45:34;13.72;;;8.03;;
43552;SDS011;29153;42.696;23.218;2023-05-10T13:48:01;12.40;;;7.78;;
43552;SDS011;29153;42.696;23.218;2023-05-10T13:50:29;12.03;;;7.50;;
43552;SDS011;29153;42.696;23.218;2023-05-10T13:52:57;11.05;;;6.67;;
43552;SDS011;29153;42.696;23.218;2023-05-10T13:55:45;11.80;;;7.65;;
43552;SDS011;29153;42.696;23.218;2023-05-10T13:58:15;12.28;;;6.65;;
43552;SDS011;29153;42.696;23.218;2023-05-10T14:00:43;14.33;;;8.35;;
43552;SDS011;29153;42.696;23.218;2023-05-10T14:03:10;18.42;;;10.45;;
43552;SDS011;29153;42.696;23.218;2023-05-10T14:05:38;13.60;;;8.58;;
43552;SDS011;29153;42.696;23.218;2023-05-10T14:08:06;14.00;;;7.33;;
43552;SDS011;29153;42.696;23.218;2023-05-10T14:10:34;11.73;;;7.12;;
43552;SDS011;29153;42.696;23.218;2023-05-10T14:13:02;15.98;;;7.72;;
43552;SDS011;29153;42.696;23.218;2023-05-10T14:15:30;18.57;;;8.28;;
43552;SDS011;29153;42.696;23.218;2023-05-10T14:17:57;13.72;;;8.43;;
43552;SDS011;29153;42.696;23.218;2023-05-10T14:20:25;14.25;;;7.08;;
43552;SDS011;29153;42.696;23.218;2023-05-10T14:22:52;13.40;;;7.37;;
43552;SDS011;29153;42.696;23.218;2023-05-10T14:25:20;12.93;;;7.65;;
43552;SDS011;29153;42.696;23.218;2023-05-10T14:27:47;13.22;;;6.80;;
43552;SDS011;29153;42.696;23.218;2023-05-10T14:30:15;12.23;;;7.83;;
43552;SDS011;29153;42.696;23.218;2023-05-10T14:32:43;17.65;;;8.80;;
43552;SDS011;29153;42.696;23.218;2023-05-10T14:35:10;12.43;;;7.67;;
43552;SDS011;29153;42.696;23.218;2023-05-10T14:37:38;11.53;;;6.78;;
43552;SDS011;29153;42.696;23.218;2023-05-10T14:40:07;12.55;;;8.15;;
43552;SDS011;29153;42.696;23.218;2023-05-10T14:42:35;16.93;;;9.48;;
43552;SDS011;29153;42.696;23.218;2023-05-10T14:45:03;11.83;;;7.10;;
43552;SDS011;29153;42.696;23.218;2023-05-10T14:47:31;12.03;;;8.40;;
43552;SDS011;29153;42.696;23.218;2023-05-10T14:49:59;13.85;;;8.63;;
43552;SDS011;29153;42.696;23.218;2023-05-10T14:52:27;14.73;;;6.83;;
43552;SDS011;29153;42.696;23.218;2023-05-10T14:54:55;15.70;;;9.95;;
43552;SDS011;29153;42.696;23.218;2023-05-10T14:57:24;13.80;;;8.10;;
43552;SDS011;29153;42.696;23.218;2023-05-10T14:59:51;11.50;;;6.67;;
43552;SDS011;29153;42.696;23.218;2023-05-10T15:02:19;17.45;;;7.20;;
43552;SDS011;29153;42.696;23.218;2023-05-10T15:04:47;12.53;;;7.60;;
43552;SDS011;29153;42.696;23.218;2023-05-10T15:07:14;14.85;;;7.42;;
43552;SDS011;29153;42.696;23.218;2023-05-10T15:09:44;15.80;;;9.00;;
43552;SDS011;29153;42.696;23.218;2023-05-10T15:12:11;18.15;;;9.75;;
43552;SDS011;29153;42.696;23.218;2023-05-10T15:14:39;14.35;;;8.63;;
43552;SDS011;29153;42.696;23.218;2023-05-10T15:17:07;22.15;;;9.55;;
43552;SDS011;29153;42.696;23.218;2023-05-10T15:19:34;14.05;;;7.90;;
43552;SDS011;29153;42.696;23.218;2023-05-10T15:22:03;11.70;;;7.00;;
43552;SDS011;29153;42.696;23.218;2023-05-10T15:24:31;11.03;;;7.25;;
43552;SDS011;29153;42.696;23.218;2023-05-10T15:26:59;11.53;;;7.15;;
43552;SDS011;29153;42.696;23.218;2023-05-10T15:29:27;9.65;;;5.65;;
43552;SDS011;29153;42.696;23.218;2023-05-10T15:31:55;15.28;;;8.08;;
43552;SDS011;29153;42.696;23.218;2023-05-10T15:34:22;11.93;;;8.20;;
43552;SDS011;29153;42.696;23.218;2023-05-10T15:36:50;13.80;;;6.62;;
43552;SDS011;29153;42.696;23.218;2023-05-10T15:39:18;11.73;;;7.22;;
43552;SDS011;29153;42.696;23.218;2023-05-10T15:41:46;13.55;;;7.90;;
43552;SDS011;29153;42.696;23.218;2023-05-10T15:44:13;11.43;;;6.70;;
43552;SDS011;29153;42.696;23.218;2023-05-10T15:46:41;11.70;;;7.08;;
43552;SDS011;29153;42.696;23.218;2023-05-10T15:49:08;14.47;;;8.08;;